createdAt,value
2022-12-06T13:45:03.032Z,4.47
2022-12-06T13:47:41.733Z,3.53
2022-12-06T13:50:29.401Z,2.78
2022-12-06T13:53:04.206Z,3.35
2022-12-06T13:55:59.694Z,5.80
2022-12-06T13:58:49.859Z,3.63
2022-12-06T14:01:39.989Z,3.20
2022-12-06T14:06:56.582Z,4.10
2022-12-06T14:09:25.734Z,9.43
2022-12-06T14:11:54.370Z,4.82
2022-12-06T14:14:23.353Z,2.15
2022-12-06T14:16:53.846Z,1.63
2022-12-06T14:19:23.034Z,3.20
2022-12-06T14:21:56.919Z,2.03
2022-12-06T14:24:26.335Z,1.98
2022-12-06T14:26:54.316Z,2.97
2022-12-06T14:29:23.611Z,3.65
2022-12-06T14:31:52.260Z,2.88
2022-12-06T14:34:26.838Z,8.25
2022-12-06T14:36:57.358Z,2.70
2022-12-06T14:39:26.352Z,2.85
2022-12-06T14:42:12.246Z,2.72
2022-12-06T14:44:40.110Z,4.07
2022-12-06T14:47:08.440Z,2.10
2022-12-06T14:49:54.477Z,4.55
2022-12-06T14:52:28.099Z,1.88
2022-12-06T14:55:09.148Z,3.55
2022-12-06T14:57:39.736Z,4.28
2022-12-06T15:00:16.100Z,4.90
2022-12-06T15:03:00.182Z,4.25
2022-12-06T15:05:32.235Z,15.45
2022-12-06T15:08:18.300Z,5.85
2022-12-06T15:10:54.338Z,3.45
2022-12-06T15:13:22.969Z,7.32
2022-12-06T15:16:00.935Z,7.97
2022-12-06T15:18:29.483Z,3.75
2022-12-06T15:20:57.433Z,3.83
2022-12-06T15:23:29.762Z,3.80
2022-12-06T15:25:57.860Z,4.15
2022-12-06T15:28:25.711Z,4.53
2022-12-06T15:30:54.123Z,3.13
2022-12-06T15:33:22.657Z,4.82
2022-12-06T15:35:50.713Z,4.63
2022-12-06T15:38:19.395Z,6.20
2022-12-06T15:40:49.977Z,9.25
2022-12-06T15:43:23.813Z,4.40
2022-12-06T15:45:51.545Z,4.93
2022-12-06T15:50:47.693Z,8.70
2022-12-06T15:53:16.077Z,4.15
2022-12-06T15:55:43.837Z,3.67
2022-12-06T16:00:40.716Z,3.65
2022-12-06T16:03:08.925Z,6.55
2022-12-06T16:05:36.851Z,4.93
2022-12-06T16:08:04.909Z,4.45
2022-12-06T16:11:09.608Z,4.55
2022-12-06T16:13:24.511Z,3.67
2022-12-06T16:15:53.963Z,3.10
2022-12-06T16:18:21.985Z,4.20
2022-12-06T16:20:50.138Z,6.30
2022-12-06T16:24:04.546Z,5.22
2022-12-06T16:26:24.066Z,4.60
2022-12-06T16:28:51.881Z,4.93
2022-12-06T16:31:21.439Z,5.30
2022-12-06T16:33:49.324Z,4.35
2022-12-06T16:36:19.084Z,3.67
2022-12-06T16:38:48.033Z,6.13
2022-12-06T16:41:19.618Z,4.20
2022-12-06T16:43:47.654Z,4.35
2022-12-06T16:46:21.039Z,5.30
2022-12-06T16:48:55.651Z,4.95
2022-12-06T16:51:24.115Z,4.35
2022-12-06T16:53:51.936Z,4.22
2022-12-06T16:56:19.965Z,4.80
2022-12-06T16:58:47.727Z,5.47
2022-12-06T17:01:21.149Z,4.80
2022-12-06T17:03:54.780Z,5.28
2022-12-06T17:06:23.024Z,4.75
2022-12-06T17:08:51.550Z,4.50
2022-12-06T17:11:37.536Z,4.63
2022-12-06T17:14:06.450Z,5.22
2022-12-06T17:16:35.054Z,5.30
2022-12-06T17:19:05.334Z,4.95
2022-12-06T17:21:33.896Z,4.55
2022-12-06T17:24:02.616Z,5.80
2022-12-06T17:26:32.799Z,9.77
2022-12-06T17:29:00.783Z,9.32
2022-12-06T17:31:29.016Z,4.97
2022-12-06T17:33:58.873Z,6.43
2022-12-06T17:36:28.067Z,5.88
2022-12-06T17:38:56.868Z,6.63
2022-12-06T17:41:45.846Z,5.88
2022-12-06T17:44:17.934Z,5.10
2022-12-06T17:46:45.787Z,6.57
2022-12-06T17:49:14.548Z,5.82
2022-12-06T17:51:43.791Z,9.27
2022-12-06T17:54:11.645Z,5.78
2022-12-06T17:56:40.424Z,7.18
2022-12-06T17:59:09.398Z,6.47
2022-12-06T18:02:06.103Z,7.40
2022-12-06T18:04:26.225Z,8.10
2022-12-06T18:06:55.411Z,7.70
2022-12-06T18:09:23.434Z,6.30
2022-12-06T18:11:51.754Z,6.15
2022-12-06T18:14:19.653Z,5.00
2022-12-06T18:16:48.474Z,6.85
2022-12-06T18:19:17.423Z,4.88
2022-12-06T18:21:45.222Z,9.88
2022-12-06T18:26:51.433Z,6.03
2022-12-06T18:29:20.610Z,5.28
2022-12-06T18:31:48.558Z,8.55
2022-12-06T18:34:16.676Z,5.68
2022-12-06T18:36:44.559Z,7.22
2022-12-06T18:41:43.161Z,9.15
2022-12-06T18:44:12.765Z,6.15
2022-12-06T18:46:42.264Z,6.07
2022-12-06T18:49:11.685Z,5.97
2022-12-06T18:51:39.585Z,9.20
2022-12-06T18:54:08.186Z,7.25
2022-12-06T18:56:36.649Z,7.68
2022-12-06T18:59:05.432Z,8.70
2022-12-06T19:01:35.348Z,10.13
2022-12-06T19:04:04.087Z,10.75
2022-12-06T19:06:32.824Z,13.02
2022-12-06T19:09:01.507Z,16.67
2022-12-06T19:11:29.703Z,10.48
2022-12-06T19:13:58.115Z,11.95
2022-12-06T19:16:27.493Z,13.93
2022-12-06T19:18:57.370Z,13.50
2022-12-06T19:21:25.462Z,13.25
2022-12-06T19:23:53.708Z,9.57
2022-12-06T19:26:21.830Z,7.88
2022-12-06T19:28:49.617Z,17.27
2022-12-06T19:31:17.508Z,11.20
2022-12-06T19:33:46.338Z,15.68
2022-12-06T19:36:16.539Z,17.77
2022-12-06T19:38:44.801Z,65.35
2022-12-06T19:41:14.027Z,20.50
2022-12-06T19:43:59.716Z,12.90
2022-12-06T19:46:28.949Z,12.88
2022-12-06T19:48:57.383Z,10.27
2022-12-06T19:51:29.145Z,18.10
2022-12-06T19:53:58.078Z,19.70
2022-12-06T19:56:26.224Z,10.77
2022-12-06T19:58:54.592Z,14.98
2022-12-06T20:01:25.050Z,10.13
2022-12-06T20:03:54.242Z,9.88
2022-12-06T20:06:23.013Z,14.68
2022-12-06T20:08:52.914Z,11.85
2022-12-06T20:11:39.197Z,10.57
2022-12-06T20:14:08.405Z,12.23
2022-12-06T20:16:36.920Z,14.50
2022-12-06T20:19:04.667Z,13.30
2022-12-06T20:21:32.565Z,14.82
2022-12-06T20:24:02.186Z,14.18
2022-12-06T20:26:31.353Z,16.33
2022-12-06T20:28:59.148Z,13.48
2022-12-06T20:31:28.002Z,13.85
2022-12-06T20:33:56.175Z,17.27
2022-12-06T20:36:24.337Z,17.20
2022-12-06T20:38:52.439Z,12.25
2022-12-06T20:41:22.258Z,13.38
2022-12-06T20:43:51.246Z,15.00
2022-12-06T20:46:20.343Z,20.67
2022-12-06T20:48:48.309Z,17.38
2022-12-06T20:53:43.736Z,14.45
2022-12-06T20:56:12.806Z,18.92
2022-12-06T20:58:42.090Z,20.02
2022-12-06T21:01:13.277Z,15.50
2022-12-06T21:03:41.131Z,17.27
2022-12-06T21:06:10.051Z,19.88
2022-12-06T21:08:38.081Z,19.65
2022-12-06T21:11:23.102Z,26.73
2022-12-06T21:13:53.486Z,25.38
2022-12-06T21:16:22.336Z,24.17
2022-12-06T21:18:55.000Z,26.13
2022-12-06T21:21:24.053Z,29.05
2022-12-06T21:23:51.895Z,30.33
2022-12-06T21:26:19.669Z,29.60
2022-12-06T21:31:16.357Z,29.52
2022-12-06T21:33:44.219Z,28.45
2022-12-06T21:36:12.612Z,30.75
2022-12-06T21:38:40.576Z,30.63
2022-12-06T21:41:08.966Z,32.63
2022-12-06T21:43:37.534Z,29.30
2022-12-06T21:46:06.461Z,24.73
2022-12-06T21:48:36.280Z,23.42
2022-12-06T21:51:04.690Z,30.40
2022-12-06T21:53:35.334Z,30.80
2022-12-06T21:56:06.119Z,27.58
2022-12-06T21:58:34.028Z,29.90
2022-12-06T22:01:04.979Z,28.52
2022-12-06T22:03:33.115Z,24.35
2022-12-06T22:06:05.754Z,26.88
2022-12-06T22:08:33.531Z,28.10
2022-12-06T22:11:01.473Z,27.98
2022-12-06T22:15:56.804Z,21.67
2022-12-06T22:18:24.690Z,32.50
2022-12-06T22:20:59.353Z,29.77
2022-12-06T22:23:28.629Z,36.50
2022-12-06T22:25:56.542Z,36.08
2022-12-06T22:28:24.529Z,39.80
2022-12-06T22:30:52.304Z,37.92
2022-12-06T22:33:21.219Z,53.53
2022-12-06T22:35:49.054Z,38.13
2022-12-06T22:38:16.811Z,36.75
2022-12-06T22:43:13.599Z,43.78
2022-12-06T22:45:41.386Z,40.08
2022-12-06T22:48:09.132Z,34.47
2022-12-06T22:53:04.666Z,37.17
2022-12-06T22:55:32.563Z,31.67
2022-12-06T22:58:00.504Z,39.35
2022-12-06T23:00:29.857Z,31.13
2022-12-06T23:02:59.305Z,30.55
2022-12-06T23:05:27.105Z,31.30
2022-12-06T23:10:25.478Z,31.17
2022-12-06T23:12:53.278Z,29.63
2022-12-06T23:15:21.199Z,26.05
2022-12-06T23:17:50.459Z,25.52
2022-12-06T23:20:18.413Z,24.70
2022-12-06T23:22:46.281Z,26.27
2022-12-06T23:25:14.052Z,25.00
2022-12-06T23:27:42.785Z,25.98
2022-12-06T23:30:11.002Z,26.30
2022-12-06T23:32:38.822Z,24.80
2022-12-06T23:35:08.402Z,21.48
2022-12-06T23:37:36.194Z,23.70
2022-12-06T23:40:04.135Z,28.23
2022-12-06T23:42:31.857Z,29.38
2022-12-06T23:47:27.221Z,29.45
2022-12-06T23:52:23.927Z,25.02
2022-12-06T23:54:51.694Z,24.63
2022-12-06T23:57:19.539Z,26.80
2022-12-06T23:59:47.369Z,24.52
